createdAt,value
2023-10-26T00:01:31.113Z,3.13
2023-10-26T00:03:58.947Z,3.70
2023-10-26T00:06:26.404Z,2.85
2023-10-26T00:08:54.155Z,3.70
2023-10-26T00:11:21.586Z,3.33
2023-10-26T00:13:49.273Z,2.60
2023-10-26T00:16:16.765Z,3.10
2023-10-26T00:18:44.542Z,3.15
2023-10-26T00:21:12.082Z,4.18
2023-10-26T00:23:39.910Z,3.78
2023-10-26T00:26:07.334Z,3.42
2023-10-26T00:28:35.871Z,3.13
2023-10-26T00:31:03.361Z,3.15
2023-10-26T00:33:31.144Z,3.13
2023-10-26T00:35:58.664Z,2.70
2023-10-26T00:38:26.479Z,2.83
2023-10-26T00:40:53.882Z,2.88
2023-10-26T00:43:22.583Z,3.03
2023-10-26T00:45:54.811Z,2.95
2023-10-26T00:48:22.960Z,2.75
2023-10-26T00:50:50.805Z,2.88
2023-10-26T00:53:20.060Z,3.30
2023-10-26T00:55:49.247Z,3.13
2023-10-26T00:58:16.785Z,2.88
2023-10-26T01:00:45.381Z,2.35
2023-10-26T01:03:13.352Z,2.95
2023-10-26T01:05:41.150Z,2.75
2023-10-26T01:08:08.738Z,2.83
2023-10-26T01:10:36.942Z,2.97
2023-10-26T01:13:05.571Z,2.95
2023-10-26T01:15:33.386Z,2.55
2023-10-26T01:18:00.891Z,3.00
2023-10-26T01:20:28.722Z,3.25
2023-10-26T01:22:56.254Z,3.45
2023-10-26T01:25:23.990Z,3.13
2023-10-26T01:27:51.679Z,2.92
2023-10-26T01:30:19.586Z,3.00
2023-10-26T01:32:47.117Z,3.75
2023-10-26T01:35:14.866Z,3.13
2023-10-26T01:37:42.529Z,2.80
2023-10-26T01:40:11.476Z,2.90
2023-10-26T01:42:38.917Z,3.00
2023-10-26T01:45:07.085Z,3.08
2023-10-26T01:47:34.618Z,3.15
2023-10-26T01:50:03.402Z,2.60
2023-10-26T01:52:30.840Z,3.40
2023-10-26T01:54:58.609Z,2.90
2023-10-26T01:57:26.120Z,2.63
2023-10-26T01:59:57.013Z,3.35
2023-10-26T02:02:24.528Z,3.35
2023-10-26T02:04:52.339Z,2.92
2023-10-26T02:07:19.753Z,3.53
2023-10-26T02:09:47.468Z,2.83
2023-10-26T02:12:14.924Z,3.20
2023-10-26T02:14:42.858Z,2.92
2023-10-26T02:17:10.398Z,2.72
2023-10-26T02:19:39.216Z,3.85
2023-10-26T02:22:06.659Z,3.58
2023-10-26T02:24:34.362Z,4.75
2023-10-26T02:27:01.788Z,4.45
2023-10-26T02:29:29.538Z,3.67
2023-10-26T02:31:56.951Z,3.35
2023-10-26T02:34:24.846Z,4.22
2023-10-26T02:36:52.589Z,4.03
2023-10-26T02:39:20.331Z,3.33
2023-10-26T02:41:47.723Z,3.80
2023-10-26T02:44:15.505Z,3.60
2023-10-26T02:46:42.910Z,3.05
2023-10-26T02:49:10.637Z,4.00
2023-10-26T02:51:38.144Z,3.47
2023-10-26T02:54:05.873Z,3.28
2023-10-26T02:56:33.318Z,3.20
2023-10-26T02:59:01.307Z,3.78
2023-10-26T03:01:34.337Z,3.97
2023-10-26T03:06:29.476Z,2.92
2023-10-26T03:08:57.315Z,3.70
2023-10-26T03:11:24.819Z,3.17
2023-10-26T03:13:52.558Z,3.38
2023-10-26T03:16:20.069Z,3.70
2023-10-26T03:18:47.891Z,3.80
2023-10-26T03:21:17.303Z,4.63
2023-10-26T03:23:45.086Z,4.75
2023-10-26T03:26:13.391Z,3.53
2023-10-26T03:28:41.172Z,3.78
2023-10-26T03:31:14.738Z,3.30
2023-10-26T03:33:42.559Z,3.58
2023-10-26T03:36:16.661Z,3.60
2023-10-26T03:38:44.688Z,3.63
2023-10-26T03:41:12.250Z,3.72
2023-10-26T03:43:40.049Z,3.90
2023-10-26T03:46:07.512Z,4.13
2023-10-26T03:48:36.573Z,3.80
2023-10-26T03:51:04.744Z,3.72
2023-10-26T03:53:32.682Z,3.92
2023-10-26T03:56:00.254Z,4.00
2023-10-26T03:58:28.078Z,3.80
2023-10-26T04:00:57.878Z,3.60
2023-10-26T04:03:25.920Z,3.60
2023-10-26T04:05:54.068Z,3.50
2023-10-26T04:08:21.837Z,4.43
2023-10-26T04:10:49.385Z,4.00
2023-10-26T04:13:17.128Z,3.97
2023-10-26T04:15:44.579Z,3.25
2023-10-26T04:18:12.435Z,4.00
2023-10-26T04:20:39.921Z,3.65
2023-10-26T04:23:07.667Z,4.22
2023-10-26T04:25:50.675Z,3.95
2023-10-26T04:28:22.229Z,3.78
2023-10-26T04:30:49.766Z,3.35
2023-10-26T04:33:18.148Z,3.80
2023-10-26T04:35:46.275Z,3.53
2023-10-26T04:38:14.471Z,3.63
2023-10-26T04:40:42.912Z,3.47
2023-10-26T04:43:10.949Z,4.45
2023-10-26T04:45:38.433Z,3.53
2023-10-26T04:48:06.538Z,3.80
2023-10-26T04:50:34.331Z,3.80
2023-10-26T04:53:03.622Z,3.25
2023-10-26T04:55:34.762Z,3.40
2023-10-26T04:58:03.082Z,3.90
2023-10-26T05:00:31.348Z,3.67
2023-10-26T05:02:59.601Z,4.13
2023-10-26T05:05:27.468Z,4.10
2023-10-26T05:07:55.245Z,3.53
2023-10-26T05:10:22.684Z,3.78
2023-10-26T05:12:50.451Z,3.75
2023-10-26T05:15:19.823Z,3.50
2023-10-26T05:20:15.185Z,3.40
2023-10-26T05:22:42.945Z,3.92
2023-10-26T05:25:12.364Z,3.97
2023-10-26T05:27:40.208Z,4.40
2023-10-26T05:30:08.135Z,3.78
2023-10-26T05:32:36.137Z,4.07
2023-10-26T05:35:03.753Z,4.28
2023-10-26T05:37:31.535Z,4.00
2023-10-26T05:39:58.922Z,3.80
2023-10-26T05:42:26.664Z,3.58
2023-10-26T05:44:57.506Z,4.38
2023-10-26T05:47:25.406Z,4.97
2023-10-26T05:49:52.957Z,4.00
2023-10-26T05:52:21.126Z,3.75
2023-10-26T05:54:48.841Z,4.30
2023-10-26T05:57:16.757Z,3.65
2023-10-26T05:59:44.235Z,3.90
2023-10-26T06:02:12.095Z,4.25
2023-10-26T06:04:39.519Z,4.50
2023-10-26T06:07:07.258Z,4.45
2023-10-26T06:09:34.812Z,5.35
2023-10-26T06:12:02.650Z,6.15
2023-10-26T06:14:30.137Z,5.75
2023-10-26T06:16:57.903Z,4.53
2023-10-26T06:19:25.372Z,3.85
2023-10-26T06:21:53.114Z,3.65
2023-10-26T06:24:20.599Z,4.50
2023-10-26T06:26:48.673Z,3.72
2023-10-26T06:29:16.424Z,3.30
2023-10-26T06:31:44.242Z,3.30
2023-10-26T06:34:11.752Z,3.67
2023-10-26T06:36:39.663Z,4.10
2023-10-26T06:39:07.505Z,3.05
2023-10-26T06:41:35.358Z,3.10
2023-10-26T06:44:02.813Z,2.85
2023-10-26T06:46:30.546Z,4.10
2023-10-26T06:48:58.101Z,3.90
2023-10-26T06:51:25.921Z,3.70
2023-10-26T06:53:53.393Z,5.07
2023-10-26T06:56:21.224Z,4.90
2023-10-26T06:58:49.177Z,4.40
2023-10-26T07:01:20.336Z,3.95
2023-10-26T07:03:52.722Z,4.25
2023-10-26T07:06:21.066Z,3.67
2023-10-26T07:08:51.909Z,3.97
2023-10-26T07:11:24.215Z,3.85
2023-10-26T07:13:51.675Z,4.50
2023-10-26T07:16:19.806Z,3.88
2023-10-26T07:18:47.423Z,4.57
2023-10-26T07:21:17.576Z,4.70
2023-10-26T07:23:45.883Z,4.07
2023-10-26T07:26:17.700Z,4.20
2023-10-26T07:28:45.230Z,4.53
2023-10-26T07:31:20.811Z,3.78
2023-10-26T07:33:49.212Z,3.97
2023-10-26T07:36:17.118Z,3.78
2023-10-26T07:38:44.681Z,4.72
2023-10-26T07:41:12.519Z,3.90
2023-10-26T07:43:39.991Z,3.83
2023-10-26T07:46:07.942Z,4.18
2023-10-26T07:48:37.176Z,4.03
2023-10-26T07:51:05.243Z,4.47
2023-10-26T07:53:32.732Z,4.03
2023-10-26T07:56:00.556Z,4.63
2023-10-26T07:58:28.930Z,3.80
2023-10-26T08:00:57.248Z,3.78
2023-10-26T08:03:29.258Z,3.80
2023-10-26T08:06:01.873Z,4.38
2023-10-26T08:08:29.693Z,4.80
2023-10-26T08:11:10.807Z,4.35
2023-10-26T08:13:38.673Z,4.97
2023-10-26T08:16:37.169Z,3.53
2023-10-26T08:18:54.441Z,4.03
2023-10-26T08:21:22.305Z,4.57
2023-10-26T08:23:50.648Z,5.05
2023-10-26T08:26:18.515Z,5.45
2023-10-26T08:28:46.065Z,5.32
2023-10-26T08:31:13.860Z,7.22
2023-10-26T08:33:41.389Z,5.43
2023-10-26T08:36:09.262Z,4.15
2023-10-26T08:38:36.979Z,4.35
2023-10-26T08:41:05.083Z,5.13
2023-10-26T08:43:34.806Z,5.47
2023-10-26T08:46:03.458Z,5.15
2023-10-26T08:48:33.065Z,5.47
2023-10-26T08:51:01.061Z,5.28
2023-10-26T08:53:28.514Z,4.97
2023-10-26T08:55:57.530Z,5.13
2023-10-26T08:58:25.165Z,4.93
2023-10-26T09:00:53.758Z,5.15
2023-10-26T09:03:23.707Z,4.32
2023-10-26T09:05:54.143Z,5.53
2023-10-26T09:08:24.151Z,5.18
2023-10-26T09:10:52.546Z,6.05
2023-10-26T09:13:27.495Z,5.32
2023-10-26T09:15:58.369Z,4.63
2023-10-26T09:18:27.881Z,4.25
2023-10-26T09:21:03.933Z,4.63
2023-10-26T09:23:32.894Z,5.13
2023-10-26T09:26:01.236Z,4.47
2023-10-26T09:28:29.408Z,5.47
2023-10-26T09:31:03.274Z,4.70
2023-10-26T09:33:31.125Z,4.60
2023-10-26T09:36:12.357Z,4.60
2023-10-26T09:38:40.386Z,5.88
2023-10-26T09:41:10.634Z,6.75
2023-10-26T09:43:42.115Z,6.22
2023-10-26T09:46:10.239Z,7.03
2023-10-26T09:48:38.244Z,7.22
2023-10-26T09:51:05.945Z,5.93
2023-10-26T09:53:38.366Z,5.68
2023-10-26T09:56:06.455Z,5.38
2023-10-26T09:58:40.000Z,5.90
2023-10-26T10:01:26.329Z,5.72
2023-10-26T10:03:54.351Z,5.13
2023-10-26T10:06:42.162Z,5.72
2023-10-26T10:09:11.738Z,5.22
2023-10-26T10:11:40.202Z,5.53
2023-10-26T10:14:08.522Z,5.97
2023-10-26T10:16:36.528Z,5.35
2023-10-26T10:19:21.044Z,5.95
2023-10-26T10:21:53.167Z,6.70
2023-10-26T10:24:46.001Z,5.93
2023-10-26T10:27:19.801Z,5.70
2023-10-26T10:29:47.568Z,5.78
2023-10-26T10:32:35.012Z,6.80
2023-10-26T10:35:06.875Z,6.68
2023-10-26T10:37:34.307Z,7.95
2023-10-26T10:40:12.125Z,5.95
2023-10-26T10:42:40.747Z,6.35
2023-10-26T10:45:15.110Z,5.82
2023-10-26T10:47:43.138Z,6.03
2023-10-26T10:50:24.134Z,5.35
2023-10-26T10:52:55.101Z,5.93
2023-10-26T10:55:26.408Z,5.38
2023-10-26T10:57:58.332Z,6.10
2023-10-26T11:00:27.244Z,6.32
2023-10-26T11:03:00.910Z,6.57
2023-10-26T11:05:41.723Z,7.22
2023-10-26T11:08:09.712Z,7.55
2023-10-26T11:10:37.772Z,8.65
2023-10-26T11:13:06.265Z,8.30
2023-10-26T11:15:35.181Z,6.97
2023-10-26T11:18:03.326Z,7.47
2023-10-26T11:20:49.585Z,6.30
2023-10-26T11:23:20.878Z,6.20
2023-10-26T11:25:48.844Z,6.78
2023-10-26T11:28:16.454Z,6.35
2023-10-26T11:30:50.162Z,7.05
2023-10-26T11:33:33.484Z,6.30
2023-10-26T11:38:28.655Z,5.03
2023-10-26T11:40:56.769Z,4.50
2023-10-26T11:43:39.984Z,6.38
2023-10-26T11:46:08.503Z,5.63
2023-10-26T11:48:36.369Z,5.15
2023-10-26T11:51:06.578Z,4.68
2023-10-26T11:53:34.089Z,4.05
2023-10-26T11:56:01.826Z,3.47
2023-10-26T11:58:29.337Z,3.55
2023-10-26T12:00:57.117Z,3.25
2023-10-26T12:03:24.586Z,3.10
2023-10-26T12:05:52.383Z,3.50
2023-10-26T12:08:19.838Z,3.30
2023-10-26T12:10:47.860Z,4.72
2023-10-26T12:13:15.343Z,3.72
2023-10-26T12:15:43.135Z,4.15
2023-10-26T12:18:10.596Z,3.08
2023-10-26T12:20:38.313Z,3.67
2023-10-26T12:23:05.794Z,3.13
2023-10-26T12:25:33.603Z,3.95
2023-10-26T12:28:20.600Z,2.78
2023-10-26T12:30:51.243Z,2.50
2023-10-26T12:33:19.161Z,2.60
2023-10-26T12:35:48.014Z,2.90
2023-10-26T12:38:15.629Z,2.80
2023-10-26T12:40:43.482Z,3.28
2023-10-26T12:43:10.973Z,3.92
2023-10-26T12:45:40.494Z,2.83
2023-10-26T12:48:08.148Z,2.28
2023-10-26T12:50:35.992Z,2.30
2023-10-26T12:53:03.438Z,2.22
2023-10-26T12:55:31.205Z,7.15
2023-10-26T12:57:59.396Z,3.90
2023-10-26T13:00:28.030Z,2.63
2023-10-26T13:02:55.630Z,2.63
2023-10-26T13:05:23.463Z,3.10
2023-10-26T13:07:50.909Z,3.63
2023-10-26T13:10:18.651Z,3.05
2023-10-26T13:12:48.356Z,3.50
2023-10-26T13:15:21.160Z,3.63
2023-10-26T13:17:50.115Z,3.30
2023-10-26T13:20:19.261Z,2.85
2023-10-26T13:22:46.756Z,2.50
2023-10-26T13:25:14.547Z,2.90
2023-10-26T13:27:41.949Z,3.50
2023-10-26T13:30:10.049Z,3.65
2023-10-26T13:32:37.493Z,3.40
2023-10-26T13:35:05.381Z,4.22
2023-10-26T13:37:32.834Z,3.50
2023-10-26T13:40:00.664Z,3.08
2023-10-26T13:42:28.227Z,3.22
2023-10-26T13:44:56.175Z,4.28
2023-10-26T13:47:23.627Z,5.13
2023-10-26T13:49:51.593Z,5.50
2023-10-26T13:52:19.056Z,6.20
2023-10-26T13:54:47.843Z,6.63
2023-10-26T13:57:15.459Z,5.93
2023-10-26T13:59:43.186Z,4.05
2023-10-26T14:02:10.752Z,3.65
2023-10-26T14:04:40.192Z,3.45
2023-10-26T14:07:10.227Z,2.88
2023-10-26T14:09:38.055Z,2.10
2023-10-26T14:12:05.576Z,2.55
2023-10-26T14:14:35.481Z,2.40
2023-10-26T14:17:04.765Z,3.17
2023-10-26T14:19:32.707Z,2.50
2023-10-26T14:22:00.345Z,2.40
2023-10-26T14:24:28.351Z,4.60
2023-10-26T14:26:55.839Z,4.97
2023-10-26T14:29:23.535Z,5.00
2023-10-26T14:31:50.998Z,3.20
2023-10-26T14:34:18.871Z,3.45
2023-10-26T14:36:46.300Z,3.22
2023-10-26T14:39:14.072Z,3.05
2023-10-26T14:41:42.009Z,12.65
2023-10-26T14:44:09.755Z,10.00
2023-10-26T14:46:37.331Z,5.38
2023-10-26T14:49:05.387Z,4.03
2023-10-26T14:51:32.919Z,4.53
2023-10-26T14:54:00.893Z,3.72
2023-10-26T14:56:28.338Z,4.15
2023-10-26T14:58:56.496Z,3.55
2023-10-26T15:01:23.982Z,3.40
2023-10-26T15:03:51.852Z,4.05
2023-10-26T15:06:19.312Z,3.58
2023-10-26T15:08:47.061Z,3.10
2023-10-26T15:11:23.809Z,7.68
2023-10-26T15:13:52.589Z,6.20
2023-10-26T15:16:20.108Z,7.00
2023-10-26T15:18:47.957Z,4.82
2023-10-26T15:21:15.462Z,4.07
2023-10-26T15:23:43.247Z,3.70
2023-10-26T15:26:11.195Z,5.35
2023-10-26T15:28:39.090Z,4.15
2023-10-26T15:31:06.703Z,5.57
2023-10-26T15:33:34.506Z,6.97
2023-10-26T15:36:03.459Z,6.05
2023-10-26T15:38:31.533Z,6.80
2023-10-26T15:41:04.245Z,7.53
2023-10-26T15:43:32.783Z,6.18
2023-10-26T15:46:03.922Z,10.73
2023-10-26T15:49:32.762Z,8.90
2023-10-26T15:51:19.627Z,9.68
2023-10-26T15:53:47.671Z,5.63
2023-10-26T15:56:15.108Z,7.55
2023-10-26T15:58:42.864Z,7.10
2023-10-26T16:01:10.534Z,7.72
2023-10-26T16:03:38.405Z,8.93
2023-10-26T16:06:15.809Z,7.40
2023-10-26T16:08:43.960Z,6.40
2023-10-26T16:11:12.499Z,7.80
2023-10-26T16:13:40.853Z,7.20
2023-10-26T16:16:08.445Z,7.30
2023-10-26T16:18:36.549Z,7.20
2023-10-26T16:21:04.117Z,7.57
2023-10-26T16:23:31.887Z,7.55
2023-10-26T16:25:59.358Z,7.88
2023-10-26T16:28:27.149Z,9.73
2023-10-26T16:31:02.143Z,10.25
2023-10-26T16:33:30.044Z,9.20
2023-10-26T16:35:58.053Z,8.88
2023-10-26T16:38:26.139Z,9.25
2023-10-26T16:40:53.797Z,9.05
2023-10-26T16:43:22.367Z,9.38
2023-10-26T16:45:49.962Z,7.90
2023-10-26T16:48:21.327Z,7.82
2023-10-26T16:50:48.926Z,8.50
2023-10-26T16:53:29.890Z,9.45
2023-10-26T16:55:59.518Z,9.88
2023-10-26T16:58:27.313Z,5.60
2023-10-26T17:00:56.988Z,5.63
2023-10-26T17:03:27.248Z,5.18
2023-10-26T17:05:54.769Z,5.70
2023-10-26T17:08:22.733Z,6.03
2023-10-26T17:10:51.362Z,5.88
2023-10-26T17:13:19.529Z,6.20
2023-10-26T17:15:50.661Z,8.02
2023-10-26T17:18:19.726Z,8.00
2023-10-26T17:20:47.167Z,7.68
2023-10-26T17:23:15.019Z,7.85
2023-10-26T17:25:42.532Z,7.90
2023-10-26T17:28:10.472Z,7.10
2023-10-26T17:30:38.352Z,7.93
2023-10-26T17:33:09.958Z,12.65
2023-10-26T17:35:43.630Z,18.42
2023-10-26T17:38:11.918Z,7.70
2023-10-26T17:40:39.414Z,10.98
2023-10-26T17:43:09.009Z,11.02
2023-10-26T17:45:36.640Z,8.27
2023-10-26T17:48:04.625Z,17.95
2023-10-26T17:50:32.103Z,16.80
2023-10-26T17:53:00.162Z,16.90
2023-10-26T17:55:27.639Z,62.65
2023-10-26T17:57:55.376Z,57.10
2023-10-26T18:00:22.862Z,22.17
2023-10-26T18:02:50.598Z,35.72
2023-10-26T18:05:18.137Z,47.90
2023-10-26T18:07:45.880Z,32.05
2023-10-26T18:10:15.123Z,23.10
2023-10-26T18:12:43.395Z,18.15
2023-10-26T18:15:13.161Z,34.78
2023-10-26T18:17:40.927Z,12.57
2023-10-26T18:20:09.971Z,10.80
2023-10-26T18:22:38.040Z,13.82
2023-10-26T18:25:06.059Z,12.55
2023-10-26T18:27:33.871Z,13.18
2023-10-26T18:30:01.296Z,13.68
2023-10-26T18:32:30.695Z,17.25
2023-10-26T18:34:58.217Z,27.05
2023-10-26T18:37:26.471Z,18.20
2023-10-26T18:39:57.634Z,11.48
2023-10-26T18:42:25.481Z,8.13
2023-10-26T18:44:53.612Z,6.90
2023-10-26T18:47:21.381Z,7.57
2023-10-26T18:49:49.712Z,7.38
2023-10-26T18:52:17.454Z,7.18
2023-10-26T18:54:44.892Z,7.50
2023-10-26T18:57:12.715Z,17.38
2023-10-26T18:59:40.174Z,12.02
2023-10-26T19:02:07.998Z,7.75
2023-10-26T19:04:36.083Z,7.85
2023-10-26T19:07:05.224Z,8.05
2023-10-26T19:09:33.445Z,7.47
2023-10-26T19:12:01.218Z,5.65
2023-10-26T19:14:29.294Z,5.55
2023-10-26T19:16:57.263Z,6.15
2023-10-26T19:19:24.918Z,4.90
2023-10-26T19:21:52.682Z,6.13
2023-10-26T19:24:20.225Z,6.05
2023-10-26T19:26:48.553Z,5.30
2023-10-26T19:29:17.108Z,6.43
2023-10-26T19:31:44.898Z,5.85
2023-10-26T19:34:12.391Z,6.45
2023-10-26T19:36:40.205Z,7.40
2023-10-26T19:39:09.267Z,7.47
2023-10-26T19:41:37.050Z,7.32
2023-10-26T19:44:05.588Z,7.38
2023-10-26T19:46:33.628Z,7.38
2023-10-26T19:49:01.305Z,7.05
2023-10-26T19:51:29.112Z,6.90
2023-10-26T19:53:56.560Z,7.72
2023-10-26T19:56:24.318Z,7.05
2023-10-26T19:58:51.741Z,6.63
2023-10-26T20:01:19.582Z,9.05
2023-10-26T20:03:47.734Z,8.25
2023-10-26T20:06:15.202Z,8.40
2023-10-26T20:08:44.131Z,8.73
2023-10-26T20:11:11.752Z,11.02
2023-10-26T20:13:39.513Z,11.63
2023-10-26T20:16:07.153Z,10.98
2023-10-26T20:18:39.002Z,13.27
2023-10-26T20:21:06.538Z,13.13
2023-10-26T20:23:34.226Z,13.05
2023-10-26T20:26:01.764Z,12.95
2023-10-26T20:28:29.546Z,11.10
2023-10-26T20:30:56.974Z,8.73
2023-10-26T20:33:24.851Z,11.13
2023-10-26T20:35:55.486Z,11.07
2023-10-26T20:38:23.246Z,12.55
2023-10-26T20:40:50.895Z,9.85
2023-10-26T20:43:18.778Z,9.43
2023-10-26T20:45:47.429Z,8.55
2023-10-26T20:48:15.262Z,7.80
2023-10-26T20:50:42.685Z,8.35
2023-10-26T20:53:10.466Z,9.32
2023-10-26T20:55:37.997Z,8.60
2023-10-26T20:58:05.808Z,8.05
2023-10-26T21:00:33.505Z,7.32
2023-10-26T21:03:01.263Z,8.13
2023-10-26T21:05:28.733Z,7.55
2023-10-26T21:07:56.776Z,6.65
2023-10-26T21:10:24.391Z,7.65
2023-10-26T21:12:52.354Z,7.32
2023-10-26T21:15:21.571Z,7.43
2023-10-26T21:17:49.749Z,8.55
2023-10-26T21:20:17.236Z,8.40
2023-10-26T21:22:45.088Z,7.45
2023-10-26T21:25:12.577Z,9.30
2023-10-26T21:27:40.439Z,8.45
2023-10-26T21:30:08.112Z,8.65
2023-10-26T21:32:35.934Z,8.43
2023-10-26T21:35:03.806Z,7.60
2023-10-26T21:37:31.830Z,8.27
2023-10-26T21:39:59.301Z,7.72
2023-10-26T21:42:27.537Z,7.20
2023-10-26T21:44:54.955Z,7.50
2023-10-26T21:47:22.956Z,7.70
2023-10-26T21:49:51.777Z,7.82
2023-10-26T21:52:19.665Z,7.70
2023-10-26T21:54:47.829Z,9.23
2023-10-26T21:57:15.977Z,7.63
2023-10-26T21:59:44.010Z,8.55
2023-10-26T22:02:11.942Z,8.70
2023-10-26T22:04:39.419Z,10.65
2023-10-26T22:07:07.242Z,8.60
2023-10-26T22:09:44.851Z,11.07
2023-10-26T22:12:16.564Z,129.43
2023-10-26T22:14:43.957Z,59.65
2023-10-26T22:17:11.741Z,33.80
2023-10-26T22:19:39.864Z,15.35
2023-10-26T22:22:07.654Z,13.05
2023-10-26T22:24:35.107Z,17.75
2023-10-26T22:27:02.832Z,14.32
2023-10-26T22:29:30.968Z,12.40
2023-10-26T22:31:59.058Z,12.50
2023-10-26T22:34:27.181Z,10.88
2023-10-26T22:36:55.071Z,10.98
2023-10-26T22:39:22.931Z,12.70
2023-10-26T22:41:50.664Z,10.18
2023-10-26T22:44:18.227Z,9.65
2023-10-26T22:46:46.009Z,8.75
2023-10-26T22:49:13.673Z,8.45
2023-10-26T22:51:41.475Z,8.95
2023-10-26T22:54:08.901Z,8.85
2023-10-26T22:56:36.669Z,9.23
2023-10-26T22:59:04.186Z,8.95
2023-10-26T23:01:32.212Z,9.82
2023-10-26T23:03:59.827Z,8.55
2023-10-26T23:06:29.295Z,8.70
2023-10-26T23:08:57.025Z,7.85
2023-10-26T23:11:24.778Z,8.20
2023-10-26T23:13:52.284Z,8.10
2023-10-26T23:16:21.230Z,8.20
2023-10-26T23:18:48.856Z,7.70
2023-10-26T23:21:16.649Z,7.30
2023-10-26T23:23:44.293Z,7.30
2023-10-26T23:26:12.313Z,7.18
2023-10-26T23:28:39.745Z,7.05
2023-10-26T23:31:13.735Z,8.15
2023-10-26T23:33:41.248Z,9.32
2023-10-26T23:36:13.033Z,7.80
2023-10-26T23:38:40.543Z,8.68
2023-10-26T23:41:08.286Z,7.50
2023-10-26T23:43:35.687Z,8.90
2023-10-26T23:46:03.521Z,8.18
2023-10-26T23:48:31.412Z,8.40
2023-10-26T23:50:59.443Z,8.95
2023-10-26T23:53:26.848Z,7.68
2023-10-26T23:55:54.629Z,8.73
2023-10-26T23:58:22.161Z,8.30
